Isle of Scalpay, United Kingdom
Current Conditions -  °F | °C
As of 10:50 AM on Thursday 27 Nov 2014 (Local Time) from EGPO Reporting Station
Few Clouds Few Clouds  
Wind Chill: 43°   Ceiling: Unl
Heat Index: 46°   Visibility: 6mi
Dew Point: 39°   Wind: 7mph
Humidity: 76%   Direction: 130°SE
Pressure: 29.62"   Gusts: NA
Location:  57.87°N, 6.7°W
Report Text: EGPO 271050Z 13006KT 9999 FEW030 08/04 Q1003
Loading
Personal Weather Stations






























Interactive Weather Map New forecast layout! Learn more

10-Day Weather Forecast

Advertisements
Track Severe Weather on mobile